sensor_id;sensor_type;location;lat;lon;timestamp;pressure;altitude;pressure_sealevel;temperature;humidity
11415;BME280;5763;42.714;23.244;2023-03-03T00:00:42;94604.97;;;7.42;71.37
11415;BME280;5763;42.714;23.244;2023-03-03T00:03:11;94600.63;;;7.45;71.43
11415;BME280;5763;42.714;23.244;2023-03-03T00:05:40;94605.75;;;7.43;71.22
11415;BME280;5763;42.714;23.244;2023-03-03T00:08:08;94608.88;;;7.41;70.91
11415;BME280;5763;42.714;23.244;2023-03-03T00:10:37;94611.75;;;7.50;70.33
11415;BME280;5763;42.714;23.244;2023-03-03T00:13:06;94594.28;;;7.35;71.23
11415;BME280;5763;42.714;23.244;2023-03-03T00:15:38;94598.94;;;7.35;71.10
11415;BME280;5763;42.714;23.244;2023-03-03T00:18:17;94605.50;;;7.37;71.08
11415;BME280;5763;42.714;23.244;2023-03-03T00:20:48;94600.69;;;7.29;71.17
11415;BME280;5763;42.714;23.244;2023-03-03T00:23:34;94592.63;;;7.25;71.51
11415;BME280;5763;42.714;23.244;2023-03-03T00:26:12;94591.63;;;7.32;71.28
11415;BME280;5763;42.714;23.244;2023-03-03T00:28:44;94595.13;;;7.32;71.53
11415;BME280;5763;42.714;23.244;2023-03-03T00:31:14;94597.84;;;7.32;71.47
11415;BME280;5763;42.714;23.244;2023-03-03T00:33:46;94593.50;;;7.35;71.17
11415;BME280;5763;42.714;23.244;2023-03-03T00:36:28;94587.41;;;7.31;71.27
11415;BME280;5763;42.714;23.244;2023-03-03T00:38:59;94574.22;;;7.29;71.67
11415;BME280;5763;42.714;23.244;2023-03-03T00:41:38;94577.28;;;7.31;71.35
11415;BME280;5763;42.714;23.244;2023-03-03T00:47:26;94576.19;;;7.29;71.86
11415;BME280;5763;42.714;23.244;2023-03-03T00:49:53;94576.28;;;7.25;71.94
11415;BME280;5763;42.714;23.244;2023-03-03T00:52:23;94566.94;;;7.26;72.13
11415;BME280;5763;42.714;23.244;2023-03-03T00:54:53;94558.91;;;7.35;71.61
11415;BME280;5763;42.714;23.244;2023-03-03T00:57:21;94558.56;;;7.33;71.88
11415;BME280;5763;42.714;23.244;2023-03-03T00:59:47;94555.41;;;7.35;71.82
11415;BME280;5763;42.714;23.244;2023-03-03T01:02:14;94544.53;;;7.35;71.87
11415;BME280;5763;42.714;23.244;2023-03-03T01:04:42;94547.13;;;7.38;71.58
11415;BME280;5763;42.714;23.244;2023-03-03T01:07:12;94544.00;;;7.40;72.08
11415;BME280;5763;42.714;23.244;2023-03-03T01:09:39;94541.59;;;7.42;72.06
11415;BME280;5763;42.714;23.244;2023-03-03T01:12:06;94542.69;;;7.44;72.06
11415;BME280;5763;42.714;23.244;2023-03-03T01:14:34;94545.19;;;7.39;72.18
11415;BME280;5763;42.714;23.244;2023-03-03T01:17:01;94540.06;;;7.41;72.02
11415;BME280;5763;42.714;23.244;2023-03-03T01:19:28;94542.34;;;7.42;72.21
11415;BME280;5763;42.714;23.244;2023-03-03T01:21:55;94538.13;;;7.41;71.79
11415;BME280;5763;42.714;23.244;2023-03-03T01:24:22;94537.13;;;7.35;72.41
11415;BME280;5763;42.714;23.244;2023-03-03T01:26:49;94536.25;;;7.38;72.26
11415;BME280;5763;42.714;23.244;2023-03-03T01:29:15;94534.47;;;7.32;72.49
11415;BME280;5763;42.714;23.244;2023-03-03T01:31:43;94541.66;;;7.26;73.13
11415;BME280;5763;42.714;23.244;2023-03-03T01:34:10;94542.28;;;7.17;73.42
11415;BME280;5763;42.714;23.244;2023-03-03T01:36:37;94548.41;;;7.21;73.19
11415;BME280;5763;42.714;23.244;2023-03-03T01:39:04;94542.19;;;7.21;73.28
11415;BME280;5763;42.714;23.244;2023-03-03T01:41:31;94546.53;;;7.18;73.81
11415;BME280;5763;42.714;23.244;2023-03-03T01:43:59;94550.19;;;7.28;73.00
11415;BME280;5763;42.714;23.244;2023-03-03T01:46:46;94533.84;;;7.28;73.38
11415;BME280;5763;42.714;23.244;2023-03-03T01:49:16;94527.41;;;7.34;73.26
11415;BME280;5763;42.714;23.244;2023-03-03T01:51:48;94526.25;;;7.35;72.87
11415;BME280;5763;42.714;23.244;2023-03-03T01:54:20;94533.09;;;7.40;72.68
11415;BME280;5763;42.714;23.244;2023-03-03T01:56:51;94532.13;;;7.46;72.36
11415;BME280;5763;42.714;23.244;2023-03-03T01:59:20;94529.72;;;7.48;72.05
11415;BME280;5763;42.714;23.244;2023-03-03T02:01:50;94536.59;;;7.40;72.14
11415;BME280;5763;42.714;23.244;2023-03-03T02:04:17;94526.69;;;7.46;72.12
11415;BME280;5763;42.714;23.244;2023-03-03T02:06:49;94525.34;;;7.38;72.35
11415;BME280;5763;42.714;23.244;2023-03-03T02:09:22;94531.69;;;7.35;72.50
11415;BME280;5763;42.714;23.244;2023-03-03T02:11:54;94526.88;;;7.39;72.09
11415;BME280;5763;42.714;23.244;2023-03-03T02:14:23;94519.16;;;7.38;72.13
11415;BME280;5763;42.714;23.244;2023-03-03T02:16:51;94527.53;;;7.43;72.23
11415;BME280;5763;42.714;23.244;2023-03-03T02:19:23;94520.38;;;7.49;72.05
11415;BME280;5763;42.714;23.244;2023-03-03T02:21:54;94530.47;;;7.36;72.27
11415;BME280;5763;42.714;23.244;2023-03-03T02:24:25;94531.03;;;7.44;72.43
11415;BME280;5763;42.714;23.244;2023-03-03T02:26:54;94531.91;;;7.53;71.96
11415;BME280;5763;42.714;23.244;2023-03-03T02:29:21;94522.00;;;7.47;72.26
11415;BME280;5763;42.714;23.244;2023-03-03T02:31:48;94531.25;;;7.49;72.11
11415;BME280;5763;42.714;23.244;2023-03-03T02:34:15;94530.41;;;7.52;71.71
11415;BME280;5763;42.714;23.244;2023-03-03T02:36:42;94520.91;;;7.44;72.06
11415;BME280;5763;42.714;23.244;2023-03-03T02:39:12;94521.34;;;7.43;71.99
11415;BME280;5763;42.714;23.244;2023-03-03T02:41:44;94529.53;;;7.43;71.86
11415;BME280;5763;42.714;23.244;2023-03-03T02:44:14;94523.97;;;7.46;71.68
11415;BME280;5763;42.714;23.244;2023-03-03T02:46:43;94530.50;;;7.49;71.52
11415;BME280;5763;42.714;23.244;2023-03-03T02:49:12;94510.22;;;7.37;71.59
11415;BME280;5763;42.714;23.244;2023-03-03T02:51:40;94526.44;;;7.41;71.15
11415;BME280;5763;42.714;23.244;2023-03-03T02:54:08;94523.94;;;7.34;71.41
11415;BME280;5763;42.714;23.244;2023-03-03T02:56:35;94516.53;;;7.34;71.78
11415;BME280;5763;42.714;23.244;2023-03-03T02:59:02;94525.78;;;7.37;71.47
11415;BME280;5763;42.714;23.244;2023-03-03T03:01:32;94515.13;;;7.30;71.61
11415;BME280;5763;42.714;23.244;2023-03-03T03:04:02;94513.25;;;7.27;71.74
11415;BME280;5763;42.714;23.244;2023-03-03T03:06:31;94515.13;;;7.30;72.18
11415;BME280;5763;42.714;23.244;2023-03-03T03:08:57;94509.88;;;7.23;71.96
11415;BME280;5763;42.714;23.244;2023-03-03T03:11:25;94518.34;;;7.12;72.04
11415;BME280;5763;42.714;23.244;2023-03-03T03:13:52;94512.16;;;7.12;72.09
11415;BME280;5763;42.714;23.244;2023-03-03T03:16:19;94514.56;;;7.22;71.89
11415;BME280;5763;42.714;23.244;2023-03-03T03:18:47;94503.25;;;7.24;72.11
11415;BME280;5763;42.714;23.244;2023-03-03T03:21:15;94515.09;;;7.17;71.62
11415;BME280;5763;42.714;23.244;2023-03-03T03:23:41;94515.97;;;7.14;72.02
11415;BME280;5763;42.714;23.244;2023-03-03T03:26:08;94508.38;;;7.22;71.79
11415;BME280;5763;42.714;23.244;2023-03-03T03:28:35;94507.28;;;7.19;72.10
11415;BME280;5763;42.714;23.244;2023-03-03T03:31:03;94510.38;;;7.05;72.86
11415;BME280;5763;42.714;23.244;2023-03-03T03:33:30;94505.38;;;7.04;73.08
11415;BME280;5763;42.714;23.244;2023-03-03T03:35:59;94512.19;;;6.96;73.50
11415;BME280;5763;42.714;23.244;2023-03-03T03:38:26;94500.22;;;6.93;73.87
11415;BME280;5763;42.714;23.244;2023-03-03T03:40:54;94503.28;;;6.95;74.28
11415;BME280;5763;42.714;23.244;2023-03-03T03:43:21;94497.91;;;6.79;74.79
11415;BME280;5763;42.714;23.244;2023-03-03T03:45:48;94494.66;;;6.84;74.93
11415;BME280;5763;42.714;23.244;2023-03-03T03:48:15;94497.69;;;6.86;74.82
11415;BME280;5763;42.714;23.244;2023-03-03T03:50:43;94500.88;;;6.97;75.01
11415;BME280;5763;42.714;23.244;2023-03-03T03:53:12;94497.03;;;6.82;75.44
11415;BME280;5763;42.714;23.244;2023-03-03T03:55:39;94493.09;;;6.83;75.59
11415;BME280;5763;42.714;23.244;2023-03-03T03:58:06;94493.31;;;6.76;76.16
11415;BME280;5763;42.714;23.244;2023-03-03T04:00:32;94501.47;;;6.76;76.41
11415;BME280;5763;42.714;23.244;2023-03-03T04:02:59;94493.66;;;6.78;76.47
11415;BME280;5763;42.714;23.244;2023-03-03T04:05:26;94495.34;;;6.72;76.75
11415;BME280;5763;42.714;23.244;2023-03-03T04:07:52;94496.03;;;6.76;76.82
11415;BME280;5763;42.714;23.244;2023-03-03T04:10:20;94488.28;;;6.75;77.03
11415;BME280;5763;42.714;23.244;2023-03-03T04:12:47;94479.03;;;6.72;77.18
11415;BME280;5763;42.714;23.244;2023-03-03T04:15:14;94488.75;;;6.73;77.62
11415;BME280;5763;42.714;23.244;2023-03-03T04:17:41;94493.69;;;6.91;77.20
11415;BME280;5763;42.714;23.244;2023-03-03T04:20:10;94486.28;;;6.91;77.05
11415;BME280;5763;42.714;23.244;2023-03-03T04:22:38;94489.34;;;6.93;76.82
11415;BME280;5763;42.714;23.244;2023-03-03T04:25:06;94493.25;;;6.92;77.22
11415;BME280;5763;42.714;23.244;2023-03-03T04:27:35;94485.88;;;6.93;76.82
11415;BME280;5763;42.714;23.244;2023-03-03T04:30:04;94477.88;;;6.86;76.76
11415;BME280;5763;42.714;23.244;2023-03-03T04:32:31;94482.22;;;6.71;77.46
11415;BME280;5763;42.714;23.244;2023-03-03T04:34:59;94479.72;;;6.76;78.19
11415;BME280;5763;42.714;23.244;2023-03-03T04:37:26;94484.53;;;6.85;77.93
11415;BME280;5763;42.714;23.244;2023-03-03T04:39:53;94485.97;;;6.89;77.46
11415;BME280;5763;42.714;23.244;2023-03-03T04:42:19;94489.34;;;6.93;77.41
11415;BME280;5763;42.714;23.244;2023-03-03T04:44:47;94489.34;;;6.93;77.46
11415;BME280;5763;42.714;23.244;2023-03-03T04:47:14;94487.25;;;6.85;77.47
11415;BME280;5763;42.714;23.244;2023-03-03T04:49:41;94483.16;;;6.93;77.52
11415;BME280;5763;42.714;23.244;2023-03-03T04:52:07;94489.13;;;6.88;77.79
11415;BME280;5763;42.714;23.244;2023-03-03T04:54:34;94482.91;;;6.87;77.32
11415;BME280;5763;42.714;23.244;2023-03-03T04:57:01;94486.50;;;6.84;77.57
11415;BME280;5763;42.714;23.244;2023-03-03T04:59:28;94491.72;;;6.91;77.17
11415;BME280;5763;42.714;23.244;2023-03-03T05:01:56;94487.16;;;6.88;77.83
11415;BME280;5763;42.714;23.244;2023-03-03T05:04:23;94485.53;;;6.91;78.05
11415;BME280;5763;42.714;23.244;2023-03-03T05:06:50;94490.00;;;6.97;77.88
11415;BME280;5763;42.714;23.244;2023-03-03T05:09:16;94507.19;;;6.94;77.76
11415;BME280;5763;42.714;23.244;2023-03-03T05:11:43;94490.88;;;6.94;77.60
11415;BME280;5763;42.714;23.244;2023-03-03T05:14:10;94494.78;;;6.93;77.71
11415;BME280;5763;42.714;23.244;2023-03-03T05:16:37;94500.25;;;7.06;77.31
11415;BME280;5763;42.714;23.244;2023-03-03T05:19:05;94500.34;;;7.02;77.06
11415;BME280;5763;42.714;23.244;2023-03-03T05:21:32;94499.09;;;7.07;76.93
11415;BME280;5763;42.714;23.244;2023-03-03T05:23:58;94506.22;;;7.01;77.38
11415;BME280;5763;42.714;23.244;2023-03-03T05:26:25;94500.88;;;6.97;77.95
11415;BME280;5763;42.714;23.244;2023-03-03T05:28:52;94503.44;;;7.04;77.55
11415;BME280;5763;42.714;23.244;2023-03-03T05:31:19;94501.34;;;7.08;77.68
11415;BME280;5763;42.714;23.244;2023-03-03T05:33:45;94497.44;;;7.09;77.77
11415;BME280;5763;42.714;23.244;2023-03-03T05:36:13;94496.16;;;7.14;77.82
11415;BME280;5763;42.714;23.244;2023-03-03T05:38:40;94504.63;;;7.16;77.96
11415;BME280;5763;42.714;23.244;2023-03-03T05:41:07;94505.66;;;7.22;78.20
11415;BME280;5763;42.714;23.244;2023-03-03T05:43:34;94495.94;;;7.21;78.62
11415;BME280;5763;42.714;23.244;2023-03-03T05:46:01;94503.13;;;7.27;77.90
11415;BME280;5763;42.714;23.244;2023-03-03T05:48:27;94512.28;;;7.33;77.79
11415;BME280;5763;42.714;23.244;2023-03-03T05:50:57;94508.47;;;7.31;77.50
11415;BME280;5763;42.714;23.244;2023-03-03T05:53:26;94509.13;;;7.35;77.71
11415;BME280;5763;42.714;23.244;2023-03-03T05:55:53;94516.34;;;7.41;77.59
11415;BME280;5763;42.714;23.244;2023-03-03T05:58:20;94514.59;;;7.35;77.23
11415;BME280;5763;42.714;23.244;2023-03-03T06:00:47;94503.91;;;7.28;77.96
11415;BME280;5763;42.714;23.244;2023-03-03T06:03:13;94505.31;;;7.32;77.92
11415;BME280;5763;42.714;23.244;2023-03-03T06:05:41;94509.91;;;7.35;77.60
11415;BME280;5763;42.714;23.244;2023-03-03T06:08:08;94505.66;;;7.22;77.99
11415;BME280;5763;42.714;23.244;2023-03-03T06:10:36;94509.47;;;7.24;77.98
11415;BME280;5763;42.714;23.244;2023-03-03T06:13:02;94516.97;;;7.33;77.54
11415;BME280;5763;42.714;23.244;2023-03-03T06:15:29;94512.41;;;7.30;77.00
11415;BME280;5763;42.714;23.244;2023-03-03T06:17:56;94521.41;;;7.27;77.01
11415;BME280;5763;42.714;23.244;2023-03-03T06:20:23;94522.28;;;7.24;77.76
11415;BME280;5763;42.714;23.244;2023-03-03T06:22:49;94520.56;;;7.30;77.75
11415;BME280;5763;42.714;23.244;2023-03-03T06:25:16;94522.72;;;7.22;77.40
11415;BME280;5763;42.714;23.244;2023-03-03T06:27:45;94517.63;;;7.24;77.56
11415;BME280;5763;42.714;23.244;2023-03-03T06:30:12;94520.13;;;7.31;77.85
11415;BME280;5763;42.714;23.244;2023-03-03T06:32:39;94532.66;;;7.29;77.90
11415;BME280;5763;42.714;23.244;2023-03-03T06:35:07;94518.63;;;7.30;77.42
11415;BME280;5763;42.714;23.244;2023-03-03T06:37:33;94523.06;;;7.37;77.31
11415;BME280;5763;42.714;23.244;2023-03-03T06:40:00;94520.44;;;7.33;77.91
11415;BME280;5763;42.714;23.244;2023-03-03T06:42:27;94525.78;;;7.37;78.40
11415;BME280;5763;42.714;23.244;2023-03-03T06:44:55;94518.63;;;7.43;77.60
11415;BME280;5763;42.714;23.244;2023-03-03T06:47:22;94526.69;;;7.46;77.47
11415;BME280;5763;42.714;23.244;2023-03-03T06:49:49;94534.44;;;7.48;76.51
11415;BME280;5763;42.714;23.244;2023-03-03T06:52:19;94519.06;;;7.41;76.27
11415;BME280;5763;42.714;23.244;2023-03-03T06:54:48;94539.31;;;7.40;76.46
11415;BME280;5763;42.714;23.244;2023-03-03T06:57:19;94537.75;;;7.39;75.88
11415;BME280;5763;42.714;23.244;2023-03-03T06:59:51;94530.28;;;7.43;76.22
11415;BME280;5763;42.714;23.244;2023-03-03T07:02:20;94523.72;;;7.41;76.22
11415;BME280;5763;42.714;23.244;2023-03-03T07:04:47;94533.44;;;7.54;75.79
11415;BME280;5763;42.714;23.244;2023-03-03T07:07:17;94532.47;;;7.48;76.39
11415;BME280;5763;42.714;23.244;2023-03-03T07:09:46;94539.66;;;7.55;76.40
11415;BME280;5763;42.714;23.244;2023-03-03T07:12:15;94533.25;;;7.61;76.52
11415;BME280;5763;42.714;23.244;2023-03-03T07:14:47;94529.97;;;7.66;76.13
11415;BME280;5763;42.714;23.244;2023-03-03T07:17:18;94527.69;;;7.65;76.59
11415;BME280;5763;42.714;23.244;2023-03-03T07:19:47;94535.44;;;7.66;77.36
11415;BME280;5763;42.714;23.244;2023-03-03T07:22:16;94539.88;;;7.73;77.00
11415;BME280;5763;42.714;23.244;2023-03-03T07:24:44;94541.97;;;7.69;77.44
11415;BME280;5763;42.714;23.244;2023-03-03T07:27:16;94527.69;;;7.65;78.00
11415;BME280;5763;42.714;23.244;2023-03-03T07:29:46;94532.59;;;7.70;77.42
11415;BME280;5763;42.714;23.244;2023-03-03T07:32:33;94528.25;;;7.72;76.61
11415;BME280;5763;42.714;23.244;2023-03-03T07:35:16;94535.22;;;7.73;76.83
11415;BME280;5763;42.714;23.244;2023-03-03T07:37:45;94531.50;;;7.67;77.14
11415;BME280;5763;42.714;23.244;2023-03-03T07:40:30;94527.56;;;7.68;77.00
11415;BME280;5763;42.714;23.244;2023-03-03T07:42:59;94530.53;;;7.74;76.90
11415;BME280;5763;42.714;23.244;2023-03-03T07:45:27;94527.34;;;7.75;76.60
11415;BME280;5763;42.714;23.244;2023-03-03T07:48:00;94487.63;;;7.53;76.25
11415;BME280;5763;42.714;23.244;2023-03-03T07:50:35;94529.75;;;7.86;76.46
11415;BME280;5763;42.714;23.244;2023-03-03T07:53:02;94518.31;;;7.91;76.34
11415;BME280;5763;42.714;23.244;2023-03-03T07:55:33;94518.22;;;7.94;77.06
11415;BME280;5763;42.714;23.244;2023-03-03T07:58:15;94518.63;;;8.05;76.64
11415;BME280;5763;42.714;23.244;2023-03-03T08:03:52;94521.91;;;8.13;76.38
11415;BME280;5763;42.714;23.244;2023-03-03T08:06:41;94519.00;;;8.20;76.48
11415;BME280;5763;42.714;23.244;2023-03-03T08:09:26;94517.66;;;8.24;75.74
11415;BME280;5763;42.714;23.244;2023-03-03T08:11:59;94513.53;;;8.20;75.17
11415;BME280;5763;42.714;23.244;2023-03-03T08:14:29;94520.81;;;8.23;75.38
11415;BME280;5763;42.714;23.244;2023-03-03T08:16:57;94514.28;;;8.20;75.57
11415;BME280;5763;42.714;23.244;2023-03-03T08:19:24;94516.47;;;8.25;73.75
11415;BME280;5763;42.714;23.244;2023-03-03T08:21:57;94519.53;;;8.27;74.16
11415;BME280;5763;42.714;23.244;2023-03-03T08:24:26;94509.06;;;8.26;75.07
11415;BME280;5763;42.714;23.244;2023-03-03T08:26:53;94518.50;;;8.34;75.21
11415;BME280;5763;42.714;23.244;2023-03-03T08:29:21;94513.59;;;8.41;75.19
11415;BME280;5763;42.714;23.244;2023-03-03T08:31:47;94509.34;;;8.40;75.48
11415;BME280;5763;42.714;23.244;2023-03-03T08:34:14;94508.34;;;8.47;74.72
11415;BME280;5763;42.714;23.244;2023-03-03T08:36:41;94502.47;;;8.48;74.44
11415;BME280;5763;42.714;23.244;2023-03-03T08:39:09;94505.94;;;8.49;74.63
11415;BME280;5763;42.714;23.244;2023-03-03T08:41:36;94500.84;;;8.38;75.80
11415;BME280;5763;42.714;23.244;2023-03-03T08:44:03;94503.56;;;8.51;74.72
11415;BME280;5763;42.714;23.244;2023-03-03T08:46:30;94502.38;;;8.39;75.31
11415;BME280;5763;42.714;23.244;2023-03-03T08:48:57;94396.84;;;7.81;74.15
11415;BME280;5763;42.714;23.244;2023-03-03T08:51:24;94509.53;;;8.58;73.69
11415;BME280;5763;42.714;23.244;2023-03-03T08:53:50;94507.00;;;8.64;73.70
11415;BME280;5763;42.714;23.244;2023-03-03T08:56:19;94506.13;;;8.67;73.80
11415;BME280;5763;42.714;23.244;2023-03-03T08:58:45;94504.56;;;8.78;73.31
11415;BME280;5763;42.714;23.244;2023-03-03T09:01:13;94499.84;;;8.79;73.63
11415;BME280;5763;42.714;23.244;2023-03-03T09:03:41;94510.06;;;8.87;73.74
11415;BME280;5763;42.714;23.244;2023-03-03T09:06:08;94505.69;;;8.90;73.02
11415;BME280;5763;42.714;23.244;2023-03-03T09:08:35;94499.31;;;8.71;73.37
11415;BME280;5763;42.714;23.244;2023-03-03T09:11:02;94509.31;;;8.87;72.92
11415;BME280;5763;42.714;23.244;2023-03-03T09:13:30;94495.69;;;8.87;72.90
11415;BME280;5763;42.714;23.244;2023-03-03T09:15:57;94499.63;;;8.86;73.24
11415;BME280;5763;42.714;23.244;2023-03-03T09:18:30;94501.13;;;8.87;73.51
11415;BME280;5763;42.714;23.244;2023-03-03T09:20:57;94501.31;;;8.92;73.27
11415;BME280;5763;42.714;23.244;2023-03-03T09:23:42;94500.50;;;9.04;73.10
11415;BME280;5763;42.714;23.244;2023-03-03T09:26:21;94501.75;;;9.12;72.22
11415;BME280;5763;42.714;23.244;2023-03-03T09:28:53;94504.88;;;9.02;72.80
11415;BME280;5763;42.714;23.244;2023-03-03T09:31:24;94504.44;;;8.82;74.13
11415;BME280;5763;42.714;23.244;2023-03-03T09:33:51;94506.06;;;8.79;73.68
11415;BME280;5763;42.714;23.244;2023-03-03T09:36:24;94500.50;;;8.83;73.82
11415;BME280;5763;42.714;23.244;2023-03-03T09:38:53;94512.22;;;8.92;73.85
11415;BME280;5763;42.714;23.244;2023-03-03T09:44:44;94506.47;;;8.90;73.60
11415;BME280;5763;42.714;23.244;2023-03-03T09:47:27;94513.03;;;8.80;72.27
11415;BME280;5763;42.714;23.244;2023-03-03T09:50:04;94505.59;;;8.93;72.39
11415;BME280;5763;42.714;23.244;2023-03-03T09:52:36;94500.56;;;8.92;72.80
11415;BME280;5763;42.714;23.244;2023-03-03T09:55:19;94508.09;;;8.88;73.60
11415;BME280;5763;42.714;23.244;2023-03-03T09:58:01;94500.41;;;8.74;74.93
11415;BME280;5763;42.714;23.244;2023-03-03T10:00:45;94504.66;;;8.75;75.30
11415;BME280;5763;42.714;23.244;2023-03-03T10:03:39;94499.50;;;8.89;74.03
11415;BME280;5763;42.714;23.244;2023-03-03T10:06:19;94491.09;;;8.84;74.72
11415;BME280;5763;42.714;23.244;2023-03-03T10:11:38;94493.84;;;9.05;74.06
11415;BME280;5763;42.714;23.244;2023-03-03T10:14:32;94498.16;;;9.15;72.03
11415;BME280;5763;42.714;23.244;2023-03-03T10:17:27;94497.59;;;9.20;71.53
11415;BME280;5763;42.714;23.244;2023-03-03T10:20:05;94490.78;;;9.25;70.28
11415;BME280;5763;42.714;23.244;2023-03-03T10:22:40;94495.28;;;9.19;70.90
11415;BME280;5763;42.714;23.244;2023-03-03T10:25:22;94489.84;;;9.19;71.56
11415;BME280;5763;42.714;23.244;2023-03-03T10:28:22;94484.81;;;9.17;72.06
11415;BME280;5763;42.714;23.244;2023-03-03T10:31:01;94484.81;;;9.17;71.06
11415;BME280;5763;42.714;23.244;2023-03-03T10:33:36;94479.06;;;9.15;70.64
11415;BME280;5763;42.714;23.244;2023-03-03T10:36:26;94476.91;;;9.10;71.64
11415;BME280;5763;42.714;23.244;2023-03-03T10:39:02;94470.53;;;9.13;70.91
11415;BME280;5763;42.714;23.244;2023-03-03T10:41:45;94479.34;;;9.17;70.99
11415;BME280;5763;42.714;23.244;2023-03-03T10:44:32;94479.69;;;9.19;71.88
11415;BME280;5763;42.714;23.244;2023-03-03T10:47:26;94476.25;;;9.06;72.58
11415;BME280;5763;42.714;23.244;2023-03-03T10:50:04;94479.19;;;9.12;71.91
11415;BME280;5763;42.714;23.244;2023-03-03T10:52:39;94477.53;;;9.14;70.81
11415;BME280;5763;42.714;23.244;2023-03-03T10:55:35;94467.50;;;9.11;70.93
11415;BME280;5763;42.714;23.244;2023-03-03T10:58:27;94464.25;;;9.04;71.94
11415;BME280;5763;42.714;23.244;2023-03-03T11:01:05;94464.19;;;8.95;72.50
11415;BME280;5763;42.714;23.244;2023-03-03T11:03:50;94458.16;;;9.00;73.59
11415;BME280;5763;42.714;23.244;2023-03-03T11:06:28;94463.69;;;9.09;73.27
11415;BME280;5763;42.714;23.244;2023-03-03T11:09:05;94465.97;;;9.10;73.30
11415;BME280;5763;42.714;23.244;2023-03-03T11:11:39;94456.66;;;8.99;73.00
11415;BME280;5763;42.714;23.244;2023-03-03T11:14:12;94458.22;;;8.87;73.03
11415;BME280;5763;42.714;23.244;2023-03-03T11:16:51;94449.66;;;8.76;73.60
11415;BME280;5763;42.714;23.244;2023-03-03T11:19:31;94447.28;;;8.78;74.26
11415;BME280;5763;42.714;23.244;2023-03-03T11:22:10;94444.66;;;8.75;74.57
11415;BME280;5763;42.714;23.244;2023-03-03T11:24:50;94437.03;;;8.70;74.79
11415;BME280;5763;42.714;23.244;2023-03-03T11:27:30;94443.53;;;8.63;75.97
11415;BME280;5763;42.714;23.244;2023-03-03T11:30:25;94437.72;;;8.61;76.19
11415;BME280;5763;42.714;23.244;2023-03-03T11:33:01;94442.22;;;8.55;76.01
11415;BME280;5763;42.714;23.244;2023-03-03T11:35:37;94436.50;;;8.41;77.77
11415;BME280;5763;42.714;23.244;2023-03-03T11:38:20;94430.19;;;8.65;76.73
11415;BME280;5763;42.714;23.244;2023-03-03T11:40:52;94428.28;;;8.75;76.13
11415;BME280;5763;42.714;23.244;2023-03-03T11:43:26;94436.06;;;8.64;76.72
11415;BME280;5763;42.714;23.244;2023-03-03T11:45:58;94433.03;;;8.62;77.14
11415;BME280;5763;42.714;23.244;2023-03-03T11:48:33;94435.00;;;8.61;77.20
11415;BME280;5763;42.714;23.244;2023-03-03T11:51:05;94434.69;;;8.59;77.86
11415;BME280;5763;42.714;23.244;2023-03-03T11:53:42;94429.66;;;8.58;78.25
11415;BME280;5763;42.714;23.244;2023-03-03T11:56:20;94428.41;;;8.50;78.54
11415;BME280;5763;42.714;23.244;2023-03-03T11:58:53;94423.22;;;8.64;78.36
11415;BME280;5763;42.714;23.244;2023-03-03T12:01:30;94420.78;;;8.66;77.84
11415;BME280;5763;42.714;23.244;2023-03-03T12:04:01;94414.69;;;8.62;78.57
11415;BME280;5763;42.714;23.244;2023-03-03T12:06:35;94417.00;;;8.64;78.84
11415;BME280;5763;42.714;23.244;2023-03-03T12:09:19;94428.28;;;8.53;79.09
11415;BME280;5763;42.714;23.244;2023-03-03T12:11:51;94429.50;;;8.52;79.23
11415;BME280;5763;42.714;23.244;2023-03-03T12:14:34;94429.16;;;8.50;79.44
11415;BME280;5763;42.714;23.244;2023-03-03T12:17:11;94427.63;;;8.49;79.77
11415;BME280;5763;42.714;23.244;2023-03-03T12:19:47;94429.81;;;8.54;79.97
11415;BME280;5763;42.714;23.244;2023-03-03T12:22:26;94425.75;;;8.59;79.00
11415;BME280;5763;42.714;23.244;2023-03-03T12:25:18;94431.00;;;8.53;77.89
11415;BME280;5763;42.714;23.244;2023-03-03T12:27:52;94427.00;;;8.45;78.92
11415;BME280;5763;42.714;23.244;2023-03-03T12:30:34;94429.88;;;8.29;79.00
11415;BME280;5763;42.714;23.244;2023-03-03T12:33:14;94426.84;;;8.27;79.94
11415;BME280;5763;42.714;23.244;2023-03-03T12:35:50;94424.66;;;8.35;79.53
11415;BME280;5763;42.714;23.244;2023-03-03T12:38:27;94428.38;;;8.28;80.14
11415;BME280;5763;42.714;23.244;2023-03-03T12:41:03;94425.00;;;8.24;80.63
11415;BME280;5763;42.714;23.244;2023-03-03T12:43:43;94426.22;;;8.23;80.74
11415;BME280;5763;42.714;23.244;2023-03-03T12:46:20;94429.59;;;8.27;80.99
11415;BME280;5763;42.714;23.244;2023-03-03T12:48:48;94432.53;;;8.20;80.64
11415;BME280;5763;42.714;23.244;2023-03-03T12:51:24;94425.00;;;8.12;81.87
11415;BME280;5763;42.714;23.244;2023-03-03T12:54:10;94429.38;;;8.09;81.66
11415;BME280;5763;42.714;23.244;2023-03-03T12:56:44;94427.97;;;8.05;82.40
11415;BME280;5763;42.714;23.244;2023-03-03T12:59:19;94423.91;;;8.09;82.45
11415;BME280;5763;42.714;23.244;2023-03-03T13:02:18;94427.97;;;8.05;82.59
11415;BME280;5763;42.714;23.244;2023-03-03T13:04:50;94427.28;;;8.13;82.56
11415;BME280;5763;42.714;23.244;2023-03-03T13:07:21;94428.16;;;8.10;81.96
11415;BME280;5763;42.714;23.244;2023-03-03T13:10:02;94408.66;;;8.12;82.30
11415;BME280;5763;42.714;23.244;2023-03-03T13:12:35;94420.41;;;8.21;82.77
11415;BME280;5763;42.714;23.244;2023-03-03T13:15:12;94412.25;;;8.21;82.09
11415;BME280;5763;42.714;23.244;2023-03-03T13:17:50;94416.53;;;8.44;82.75
11415;BME280;5763;42.714;23.244;2023-03-03T13:20:29;94407.84;;;8.58;82.38
11415;BME280;5763;42.714;23.244;2023-03-03T13:23:05;94414.06;;;8.80;81.53
11415;BME280;5763;42.714;23.244;2023-03-03T13:25:40;94413.41;;;8.97;81.64
11415;BME280;5763;42.714;23.244;2023-03-03T13:28:20;94404.34;;;9.00;81.50
11415;BME280;5763;42.714;23.244;2023-03-03T13:30:49;94406.31;;;9.00;81.85
11415;BME280;5763;42.714;23.244;2023-03-03T13:33:25;94407.81;;;9.01;81.56
11415;BME280;5763;42.714;23.244;2023-03-03T13:35:54;94418.72;;;8.92;81.51
11415;BME280;5763;42.714;23.244;2023-03-03T13:38:24;94410.09;;;8.93;79.91
11415;BME280;5763;42.714;23.244;2023-03-03T13:40:59;94419.09;;;8.81;81.00
11415;BME280;5763;42.714;23.244;2023-03-03T13:43:30;94409.81;;;8.79;81.73
11415;BME280;5763;42.714;23.244;2023-03-03T13:46:05;94406.00;;;8.76;80.97